Time;durP1;ratioP1;P1;durP2;ratioP2;P2;SDS_P1;SDS_P2;PMS_P1;PMS_P2;Temp;Humidity;BMP_temperature;BMP_pressure;BME280_temperature;BME280_humidity;BME280_pressure;Samples;Min_cycle;Max_cycle;Signal;HPM_P1;HPM_P2
2023/04/11 00:00:24;;;;;;;14.80;9.20;;;;;;;5.73;80.58;100705.64;102763;277;120635;-58
2023/04/11 00:03:25;;;;;;;15.60;10.20;;;;;;;5.76;80.54;100701.30;102729;277;105555;-58
2023/04/11 00:06:03;;;;;;;12.70;9.20;;;;;;;5.70;80.60;100693.77;102742;277;114932;-58
2023/04/11 00:08:38;;;;;;;10.90;8.20;;;;;;;5.65;80.62;100685.02;102672;277;97421;-57
2023/04/11 00:11:21;;;;;;;10.90;9.00;;;;;;;5.58;80.55;100682.86;102736;276;97762;-58
2023/04/11 00:13:57;;;;;;;12.70;8.50;;;;;;;5.54;80.52;100671.51;102717;277;120852;-57
2023/04/11 00:16:36;;;;;;;12.40;9.20;;;;;;;5.52;80.61;100672.23;102730;277;105545;-58
2023/04/11 00:19:22;;;;;;;15.70;10.00;;;;;;;5.45;80.91;100674.86;102751;276;114223;-57
2023/04/11 00:22:03;;;;;;;14.80;9.10;;;;;;;5.42;80.88;100676.46;102699;277;95159;-58
2023/04/11 00:24:44;;;;;;;13.00;9.00;;;;;;;5.38;80.81;100674.68;102609;277;98424;-59
2023/04/11 00:27:25;;;;;;;11.90;8.70;;;;;;;5.32;81.00;100673.27;102691;277;120730;-56
2023/04/11 00:30:04;;;;;;;10.80;8.70;;;;;;;5.29;80.78;100675.02;102600;277;106043;-58
2023/04/11 00:32:46;;;;;;;12.70;9.30;;;;;;;5.29;80.86;100675.35;102702;276;114587;-57
2023/04/11 00:35:27;;;;;;;14.10;9.40;;;;;;;5.23;80.96;100673.77;102705;276;93507;-56
2023/04/11 00:38:11;;;;;;;12.40;8.60;;;;;;;5.25;81.12;100670.92;102712;277;97974;-56
2023/04/11 00:40:50;;;;;;;14.70;9.50;;;;;;;5.26;81.09;100666.23;102654;277;120882;-57
2023/04/11 00:43:37;;;;;;;14.20;8.40;;;;;;;5.26;81.16;100661.05;102714;276;104769;-58
2023/04/11 00:46:12;;;;;;;11.20;8.80;;;;;;;5.21;81.14;100659.04;102690;277;115125;-61
2023/04/11 00:48:49;;;;;;;12.90;9.30;;;;;;;5.17;81.11;100656.38;102734;277;96829;-61
2023/04/11 00:51:26;;;;;;;11.90;8.90;;;;;;;5.16;81.05;100650.98;102728;272;98148;-58
2023/04/11 00:54:15;;;;;;;12.70;9.90;;;;;;;5.12;81.19;100647.58;102726;276;120818;-58
2023/04/11 00:56:59;;;;;;;10.70;8.80;;;;;;;5.08;81.13;100642.77;102741;276;105493;-61
2023/04/11 00:59:38;;;;;;;11.70;9.80;;;;;;;5.05;81.14;100639.86;102744;276;113047;-60
2023/04/11 01:02:20;;;;;;;11.90;8.70;;;;;;;5.00;81.20;100639.79;102692;276;96952;-55
2023/04/11 01:05:02;;;;;;;12.30;9.80;;;;;;;4.97;81.28;100636.98;102747;276;98102;-55
2023/04/11 01:07:46;;;;;;;12.60;9.30;;;;;;;4.94;81.35;100642.06;102709;276;121273;-56
2023/04/11 01:10:22;;;;;;;12.40;9.00;;;;;;;4.89;81.38;100641.95;102732;276;105062;-60
2023/04/11 01:12:59;;;;;;;11.90;8.60;;;;;;;4.90;81.40;100638.89;102689;276;114355;-58
2023/04/11 01:15:35;;;;;;;12.50;9.00;;;;;;;4.89;81.56;100634.46;102749;276;94634;-57
2023/04/11 01:18:20;;;;;;;13.80;9.80;;;;;;;4.84;81.68;100631.73;102755;276;98572;-57
2023/04/11 01:21:00;;;;;;;15.40;9.80;;;;;;;4.80;81.87;100623.44;102735;276;120940;-57
2023/04/11 01:23:41;;;;;;;12.60;8.90;;;;;;;4.77;82.00;100626.70;102716;276;106163;-57
2023/04/11 01:26:22;;;;;;;11.10;9.00;;;;;;;4.74;82.07;100626.66;102733;276;115169;-57
2023/04/11 01:29:00;;;;;;;11.60;9.40;;;;;;;4.72;82.04;100626.85;102717;276;96092;-57
2023/04/11 01:31:38;;;;;;;11.20;9.60;;;;;;;4.72;82.27;100624.20;102776;276;97487;-58
2023/04/11 01:34:17;;;;;;;14.80;9.70;;;;;;;4.71;82.10;100620.37;102705;265;120415;-58
2023/04/11 01:36:51;;;;;;;21.00;10.40;;;;;;;4.68;82.16;100623.48;102777;276;105952;-62
2023/04/11 01:39:31;;;;;;;12.40;9.90;;;;;;;4.62;82.20;100623.89;102690;276;113925;-61
2023/04/11 01:42:10;;;;;;;13.60;9.00;;;;;;;4.58;82.27;100622.14;102704;276;95735;-57
2023/04/11 01:44:50;;;;;;;11.30;8.80;;;;;;;4.54;82.35;100622.67;102708;276;96688;-57
2023/04/11 01:47:30;;;;;;;15.30;9.70;;;;;;;4.50;82.49;100620.38;102759;276;120725;-57
2023/04/11 01:50:10;;;;;;;14.00;9.90;;;;;;;4.48;82.57;100620.27;102751;276;106006;-56
2023/04/11 01:52:56;;;;;;;14.10;10.20;;;;;;;4.49;82.74;100616.07;102750;276;112117;-57
2023/04/11 01:55:36;;;;;;;13.30;10.30;;;;;;;4.46;82.79;100611.55;102706;276;93912;-54
2023/04/11 01:58:16;;;;;;;15.40;10.60;;;;;;;4.41;82.75;100609.20;102724;276;98127;-55
2023/04/11 02:00:56;;;;;;;15.60;11.80;;;;;;;4.37;82.78;100609.56;102743;276;119918;-57
2023/04/11 02:03:35;;;;;;;12.60;9.50;;;;;;;4.33;82.82;100609.73;102755;265;105897;-58
2023/04/11 02:06:17;;;;;;;13.40;10.30;;;;;;;4.31;82.79;100602.13;102724;277;114639;-60
2023/04/11 02:08:58;;;;;;;15.10;11.00;;;;;;;4.32;82.82;100596.64;102696;277;96474;-60
2023/04/11 02:11:34;;;;;;;14.90;10.50;;;;;;;4.34;82.93;100590.80;102772;277;97087;-58
2023/04/11 02:14:22;;;;;;;16.10;11.30;;;;;;;4.38;82.90;100585.70;102737;276;121562;-58
2023/04/11 02:17:03;;;;;;;19.10;11.40;;;;;;;4.40;82.83;100586.99;102733;276;105644;-62
2023/04/11 02:19:44;;;;;;;13.70;10.80;;;;;;;4.38;82.89;100587.52;102727;276;115902;-61
2023/04/11 02:22:27;;;;;;;16.30;11.00;;;;;;;4.35;82.99;100586.04;102722;276;94975;-58
2023/04/11 02:25:08;;;;;;;16.40;11.70;;;;;;;4.33;83.02;100586.42;102744;277;95492;-58
2023/04/11 02:27:50;;;;;;;17.50;11.60;;;;;;;4.35;83.10;100585.51;102761;277;119072;-55
2023/04/11 02:30:35;;;;;;;16.30;11.80;;;;;;;4.36;83.20;100584.70;102719;277;104956;-55
2023/04/11 02:33:19;;;;;;;14.00;10.80;;;;;;;4.37;83.31;100578.38;102686;277;114212;-55
2023/04/11 02:36:00;;;;;;;17.50;13.60;;;;;;;4.38;83.40;100576.33;102553;278;94705;-60
2023/04/11 02:38:39;;;;;;;19.40;13.10;;;;;;;4.37;83.44;100569.77;102724;277;97255;-61
2023/04/11 02:41:23;;;;;;;15.70;12.80;;;;;;;4.35;83.47;100567.50;102769;276;121267;-57
2023/04/11 02:44:00;;;;;;;15.70;12.50;;;;;;;4.34;83.39;100564.14;102711;277;105379;-57
2023/04/11 02:46:45;;;;;;;18.00;12.70;;;;;;;4.33;83.33;100560.25;102715;277;112872;-57
2023/04/11 02:49:30;;;;;;;14.30;11.50;;;;;;;4.29;83.46;100557.03;102721;277;96696;-58
2023/04/11 02:52:16;;;;;;;15.10;12.60;;;;;;;4.25;83.57;100556.86;102773;277;97777;-58
2023/04/11 02:54:58;;;;;;;15.50;12.50;;;;;;;4.24;83.57;100551.42;102712;277;119953;-58
2023/04/11 02:57:40;;;;;;;17.20;13.70;;;;;;;4.24;83.71;100548.36;102730;277;105556;-57
2023/04/11 03:00:20;;;;;;;20.20;12.80;;;;;;;4.20;83.64;100543.42;102709;277;114393;-57
2023/04/11 03:02:58;;;;;;;19.70;12.20;;;;;;;4.15;83.65;100547.05;102733;277;96006;-55
2023/04/11 03:05:35;;;;;;;20.80;13.20;;;;;;;4.13;83.65;100548.16;102731;277;97228;-60
2023/04/11 03:08:13;;;;;;;21.00;14.30;;;;;;;4.22;84.17;100549.45;102696;277;120141;-60
2023/04/11 03:11:02;;;;;;;19.10;14.20;;;;;;;4.43;84.81;100542.33;102735;277;105350;-55
2023/04/11 03:13:41;;;;;;;21.70;15.80;;;;;;;4.67;85.68;100536.33;102709;277;114008;-55
2023/04/11 03:16:20;;;;;;;20.90;14.80;;;;;;;4.96;86.19;100534.98;102760;276;96186;-55
2023/04/11 03:19:01;;;;;;;21.60;15.60;;;;;;;5.08;86.05;100535.50;102752;276;98175;-55
2023/04/11 03:21:40;;;;;;;17.90;14.00;;;;;;;5.21;86.30;100534.72;102725;276;121849;-56
2023/04/11 03:24:22;;;;;;;23.20;15.50;;;;;;;5.33;86.52;100535.48;102719;276;105054;-56
2023/04/11 03:27:01;;;;;;;18.90;14.20;;;;;;;5.49;86.44;100537.86;102750;276;114662;-58
2023/04/11 03:29:38;;;;;;;22.90;14.00;;;;;;;5.46;86.20;100533.66;102714;276;96953;-57
2023/04/11 03:32:21;;;;;;;17.40;13.60;;;;;;;5.49;85.93;100535.55;102751;276;98589;-57
2023/04/11 03:35:01;;;;;;;18.30;14.10;;;;;;;5.45;85.76;100533.43;102750;277;120846;-58
2023/04/11 03:37:49;;;;;;;18.10;12.80;;;;;;;5.49;85.87;100531.77;102723;276;105390;-58
2023/04/11 03:40:25;;;;;;;20.80;13.10;;;;;;;5.36;85.46;100529.14;102747;276;114049;-56
2023/04/11 03:43:11;;;;;;;18.80;13.10;;;;;;;5.24;85.27;100526.77;102714;277;97071;-55
2023/04/11 03:45:50;;;;;;;16.00;12.50;;;;;;;5.17;85.09;100526.06;102731;277;98697;-59
2023/04/11 03:48:34;;;;;;;21.30;15.60;;;;;;;5.15;85.05;100526.29;102716;276;121212;-58
2023/04/11 03:51:19;;;;;;;17.50;13.80;;;;;;;5.31;85.89;100528.16;102725;277;105068;-61
2023/04/11 03:54:02;;;;;;;20.40;14.40;;;;;;;5.43;86.16;100527.94;102707;277;113407;-62
2023/04/11 03:56:40;;;;;;;17.70;13.70;;;;;;;5.48;85.94;100526.21;102702;276;96803;-60
2023/04/11 03:59:22;;;;;;;18.90;13.90;;;;;;;5.51;86.21;100525.86;102078;277;777859;-62
2023/04/11 04:02:01;;;;;;;19.90;15.00;;;;;;;5.62;86.35;100524.59;102754;276;121484;-55
2023/04/11 04:04:42;;;;;;;18.80;14.30;;;;;;;5.77;86.57;100523.13;102745;276;105283;-56
2023/04/11 04:07:26;;;;;;;17.70;14.90;;;;;;;5.89;86.42;100516.27;102766;276;114925;-60
2023/04/11 04:10:07;;;;;;;20.60;15.10;;;;;;;5.99;86.58;100516.50;102711;277;94023;-61
2023/04/11 04:12:45;;;;;;;21.40;16.10;;;;;;;6.16;86.79;100515.60;102797;276;96906;-57
2023/04/11 04:15:26;;;;;;;20.50;15.90;;;;;;;6.28;86.82;100517.77;102735;277;119319;-57
2023/04/11 04:18:01;;;;;;;20.00;16.10;;;;;;;6.33;86.41;100518.13;102788;277;106106;-57
2023/04/11 04:20:37;;;;;;;21.80;16.10;;;;;;;6.42;86.40;100517.67;102732;277;114291;-61
2023/04/11 04:23:18;;;;;;;21.60;15.40;;;;;;;6.51;86.30;100515.61;102699;277;97191;-62
2023/04/11 04:26:01;;;;;;;20.40;15.40;;;;;;;6.63;86.21;100517.30;102759;277;97828;-58
2023/04/11 04:28:39;;;;;;;19.20;14.70;;;;;;;7.19;86.28;100521.56;102776;277;121038;-59
2023/04/11 04:31:24;;;;;;;19.10;14.70;;;;;;;8.24;85.70;100514.48;102759;277;106029;-59
2023/04/11 04:34:02;;;;;;;15.30;13.50;;;;;;;8.38;84.46;100515.39;102720;277;114401;-58
2023/04/11 04:36:46;;;;;;;20.70;14.60;;;;;;;8.06;84.04;100519.20;102767;277;94923;-58
2023/04/11 04:39:28;;;;;;;19.20;14.60;;;;;;;7.88;84.11;100518.35;102743;277;98431;-58
2023/04/11 04:42:08;;;;;;;17.70;14.80;;;;;;;8.02;84.00;100511.88;102737;276;121834;-56
2023/04/11 04:44:44;;;;;;;19.60;14.30;;;;;;;9.24;84.09;100503.14;102688;277;105160;-56
2023/04/11 04:47:32;;;;;;;19.00;14.90;;;;;;;10.75;83.41;100492.89;102732;277;114057;-59
2023/04/11 04:50:11;;;;;;;18.40;13.80;;;;;;;11.73;82.19;100489.48;102723;277;95193;-58
2023/04/11 04:52:56;;;;;;;16.70;13.50;;;;;;;12.59;81.22;100480.73;102755;277;96670;-59
2023/04/11 04:55:34;;;;;;;;;;;;;;;13.25;79.55;100483.92;102759;276;119970;-55
2023/04/11 04:58:14;;;;;;;15.10;12.60;;;;;;;13.22;78.47;100480.63;102747;277;104755;-57
2023/04/11 05:00:54;;;;;;;14.20;12.70;;;;;;;13.46;76.95;100481.26;102738;277;112942;-56
2023/04/11 05:03:34;;;;;;;14.70;13.00;;;;;;;13.63;76.47;100481.17;102747;277;94741;-55
2023/04/11 05:06:12;;;;;;;16.30;12.80;;;;;;;13.99;75.16;100484.83;102786;277;97918;-58
2023/04/11 05:08:52;;;;;;;14.30;12.40;;;;;;;14.13;74.00;100488.27;102723;277;121018;-58
2023/04/11 05:11:31;;;;;;;15.90;13.30;;;;;;;13.73;73.32;100494.55;102726;277;105547;-56
2023/04/11 05:14:16;;;;;;;18.20;13.50;;;;;;;13.47;72.99;100493.52;102602;277;115130;-56
2023/04/11 05:16:54;;;;;;;16.40;13.50;;;;;;;13.83;72.81;100489.54;102712;265;94711;-55
2023/04/11 05:19:33;;;;;;;14.80;13.20;;;;;;;14.64;72.45;100482.56;102765;277;98233;-56
2023/04/11 05:22:12;;;;;;;15.40;13.40;;;;;;;14.98;71.10;100474.05;102741;277;119875;-59
2023/04/11 05:25:01;;;;;;;14.20;12.70;;;;;;;15.09;70.83;100473.69;102758;276;104512;-57
2023/04/11 05:27:40;;;;;;;16.40;13.30;;;;;;;15.64;69.87;100464.29;102708;277;113675;-56
2023/04/11 05:30:16;;;;;;;13.90;12.50;;;;;;;16.99;68.66;100458.05;102773;277;95067;-56
2023/04/11 05:32:58;;;;;;;13.70;12.10;;;;;;;18.32;66.61;100459.64;102732;277;96894;-59
2023/04/11 05:35:41;;;;;;;15.60;12.70;;;;;;;19.35;63.56;100451.19;102587;277;119939;-59
2023/04/11 05:38:19;;;;;;;14.40;12.90;;;;;;;20.01;62.23;100448.86;102743;277;106016;-60
2023/04/11 05:41:01;;;;;;;12.70;11.40;;;;;;;20.81;61.95;100440.00;102762;277;115105;-57
2023/04/11 05:43:40;;;;;;;13.80;11.60;;;;;;;21.74;60.51;100436.11;102766;269;94320;-56
2023/04/11 05:46:18;;;;;;;12.90;11.30;;;;;;;22.23;56.68;100425.63;102747;277;98274;-57
2023/04/11 05:48:59;;;;;;;11.50;10.30;;;;;;;22.48;55.69;100422.20;102764;277;120993;-64
2023/04/11 05:51:39;;;;;;;12.20;10.80;;;;;;;22.88;55.47;100414.61;102803;277;103185;-63
2023/04/11 05:54:37;;;;;;;13.50;11.10;;;;;;;23.56;53.86;100413.09;102692;277;114240;-56
2023/04/11 05:57:16;;;;;;;11.80;10.70;;;;;;;23.92;51.46;100410.25;102759;277;93989;-62
2023/04/11 06:00:00;;;;;;;11.50;10.30;;;;;;;24.04;51.15;100407.00;102724;277;94951;-65
2023/04/11 06:02:41;;;;;;;12.30;10.90;;;;;;;24.25;47.14;100396.65;102765;277;119777;-57
2023/04/11 06:05:17;;;;;;;11.70;10.50;;;;;;;24.66;48.14;100397.31;102773;277;104805;-58
2023/04/11 06:07:58;;;;;;;11.70;10.50;;;;;;;25.09;48.43;100397.52;102755;277;113538;-64
2023/04/11 06:10:40;;;;;;;12.10;10.90;;;;;;;25.50;47.41;100393.19;102755;277;94245;-60
2023/04/11 06:13:15;;;;;;;10.90;9.80;;;;;;;25.74;47.12;100395.34;102781;277;98067;-57
2023/04/11 06:15:55;;;;;;;11.80;10.60;;;;;;;26.14;45.37;100387.67;102731;277;121658;-63
2023/04/11 06:18:34;;;;;;;10.60;9.50;;;;;;;26.51;42.85;100385.58;102735;277;105045;-60
2023/04/11 06:21:09;;;;;;;10.00;9.00;;;;;;;26.81;41.61;100380.73;102758;277;114061;-59
2023/04/11 06:23:45;;;;;;;10.80;9.80;;;;;;;26.94;42.54;100377.47;102771;276;95322;-58
2023/04/11 06:26:24;;;;;;;9.20;8.40;;;;;;;27.36;42.82;100373.92;102805;276;98293;-60
2023/04/11 06:28:58;;;;;;;9.90;8.80;;;;;;;27.81;40.80;100375.54;102751;277;120447;-58
2023/04/11 06:31:36;;;;;;;9.60;8.70;;;;;;;27.78;40.17;100375.00;102787;277;104904;-59
2023/04/11 06:34:17;;;;;;;9.30;8.50;;;;;;;27.29;39.25;100368.37;102757;277;114306;-58
2023/04/11 06:36:52;;;;;;;10.10;8.50;;;;;;;27.55;39.78;100366.27;102772;277;93650;-59
2023/04/11 06:39:34;;;;;;;9.60;8.40;;;;;;;27.85;38.97;100366.98;102775;277;95536;-59
2023/04/11 06:42:16;;;;;;;8.10;7.30;;;;;;;27.41;38.07;100364.48;102747;277;119830;-59
2023/04/11 06:44:58;;;;;;;8.10;7.30;;;;;;;26.84;38.37;100365.63;102755;277;104490;-59
2023/04/11 06:47:43;;;;;;;9.50;7.20;;;;;;;26.59;38.78;100366.36;102701;277;114229;-60
2023/04/11 06:50:22;;;;;;;6.90;6.20;;;;;;;26.79;38.80;100359.03;102694;277;93734;-60
2023/04/11 06:53:01;;;;;;;7.60;6.50;;;;;;;27.08;38.41;100348.81;102764;277;97901;-59
2023/04/11 06:55:41;;;;;;;7.20;6.50;;;;;;;27.14;38.40;100345.69;102731;277;120035;-57
2023/04/11 06:58:23;;;;;;;6.80;6.10;;;;;;;27.06;37.82;100341.42;102735;277;105955;-58
2023/04/11 07:01:05;;;;;;;6.00;5.40;;;;;;;27.14;36.93;100345.20;102732;276;114879;-63
2023/04/11 07:03:41;;;;;;;6.90;6.30;;;;;;;26.70;35.99;100338.05;102752;277;94605;-62
2023/04/11 07:06:23;;;;;;;7.00;6.40;;;;;;;26.85;36.34;100337.10;102728;277;97769;-61
2023/04/11 07:09:10;;;;;;;6.50;5.50;;;;;;;27.65;36.65;100333.52;102727;277;119504;-60
2023/04/11 07:11:49;;;;;;;7.50;6.30;;;;;;;28.63;36.48;100330.79;102776;277;105597;-57
2023/04/11 07:14:28;;;;;;;7.50;6.10;;;;;;;28.99;34.85;100324.94;102728;277;115410;-57
2023/04/11 07:17:13;;;;;;;7.90;6.10;;;;;;;29.07;35.04;100323.08;102742;277;94957;-57
2023/04/11 07:19:50;;;;;;;7.40;5.80;;;;;;;29.63;35.17;100320.02;102730;276;98009;-56
2023/04/11 07:22:31;;;;;;;7.70;6.10;;;;;;;29.76;35.43;100319.91;102787;276;121238;-63
2023/04/11 07:25:07;;;;;;;7.30;6.60;;;;;;;30.06;33.68;100321.09;102772;277;104487;-64
2023/04/11 07:27:45;;;;;;;7.60;6.80;;;;;;;30.05;33.10;100315.88;102737;276;113370;-57
2023/04/11 07:30:20;;;;;;;5.90;5.40;;;;;;;30.00;32.47;100317.77;102615;277;94624;-59
2023/04/11 07:32:59;;;;;;;7.00;6.10;;;;;;;29.70;33.14;100313.29;102769;276;95888;-63
2023/04/11 07:35:42;;;;;;;7.30;6.00;;;;;;;28.86;33.55;100310.21;102731;276;121445;-62
2023/04/11 07:38:28;;;;;;;6.40;5.80;;;;;;;29.44;33.05;100311.35;102773;276;106425;-62
2023/04/11 07:41:10;;;;;;;6.30;5.70;;;;;;;29.31;32.58;100301.01;102752;276;113435;-63
2023/04/11 07:43:50;;;;;;;5.90;5.40;;;;;;;28.58;32.66;100297.23;102733;276;94539;-62
2023/04/11 07:46:31;;;;;;;6.50;5.90;;;;;;;28.79;34.13;100295.91;102786;276;97836;-63
2023/04/11 07:49:18;;;;;;;6.30;5.80;;;;;;;29.29;32.83;100292.59;102752;276;120285;-59
2023/04/11 07:51:52;;;;;;;6.30;5.70;;;;;;;29.39;33.59;100290.40;102731;277;104513;-63
2023/04/11 07:54:30;;;;;;;6.40;5.90;;;;;;;29.76;32.86;100289.33;102709;277;113491;-63
2023/04/11 07:57:05;;;;;;;6.60;5.30;;;;;;;29.99;32.49;100285.60;102745;277;93400;-62
2023/04/11 07:59:39;;;;;;;6.20;5.30;;;;;;;29.90;32.43;100281.11;102735;277;96953;-65
2023/04/11 08:02:17;;;;;;;5.40;4.90;;;;;;;29.49;31.74;100279.70;102760;276;120454;-65
2023/04/11 08:05:01;;;;;;;5.40;4.60;;;;;;;28.80;31.00;100276.63;102747;276;104747;-59
2023/04/11 08:07:38;;;;;;;5.30;4.80;;;;;;;28.66;32.35;100274.80;102671;277;113850;-60
2023/04/11 08:10:15;;;;;;;5.00;4.60;;;;;;;29.33;31.95;100273.62;102733;276;94141;-60
2023/04/11 08:12:52;;;;;;;4.70;4.30;;;;;;;29.45;30.88;100269.71;102760;276;97562;-56
2023/04/11 08:15:30;;;;;;;5.20;4.70;;;;;;;29.24;31.74;100265.71;102781;276;121370;-56
2023/04/11 08:18:20;;;;;;;5.20;4.70;;;;;;;29.65;32.07;100259.91;102766;276;105007;-57
2023/04/11 08:20:56;;;;;;;5.00;4.50;;;;;;;29.30;30.53;100264.39;102732;277;114255;-56
2023/04/11 08:23:38;;;;;;;4.80;4.30;;;;;;;28.99;30.66;100263.95;102725;277;95333;-58
2023/04/11 08:26:18;;;;;;;4.40;4.00;;;;;;;28.89;30.21;100262.08;102719;277;98436;-59
2023/04/11 08:28:55;;;;;;;5.20;4.70;;;;;;;29.01;30.74;100259.91;102709;277;120336;-59
2023/04/11 08:31:33;;;;;;;4.90;4.50;;;;;;;28.78;29.71;100254.60;102747;277;106231;-59
2023/04/11 08:34:15;;;;;;;4.80;4.20;;;;;;;28.39;30.69;100247.89;102730;277;112648;-58
2023/04/11 08:36:58;;;;;;;5.10;4.20;;;;;;;27.79;30.07;100243.48;102750;277;94419;-56
2023/04/11 08:39:36;;;;;;;4.80;4.40;;;;;;;27.00;31.51;100235.77;102744;277;98887;-56
2023/04/11 08:42:26;;;;;;;5.20;3.90;;;;;;;26.00;31.91;100228.84;102759;277;120454;-61
2023/04/11 08:45:03;;;;;;;4.80;4.40;;;;;;;24.80;33.33;100230.18;102792;265;106515;-61
2023/04/11 08:47:45;;;;;;;5.90;4.80;;;;;;;25.11;33.66;100227.04;102670;277;112454;-56
2023/04/11 08:50:25;;;;;;;4.80;4.30;;;;;;;25.48;33.55;100225.23;102767;277;94903;-60
2023/04/11 08:53:09;;;;;;;6.30;4.90;;;;;;;25.75;33.88;100220.25;102724;277;98410;-57
2023/04/11 08:55:58;;;;;;;7.10;5.20;;;;;;;25.92;33.98;100217.17;102781;276;120406;-59
2023/04/11 08:58:40;;;;;;;5.50;4.70;;;;;;;26.11;34.07;100207.38;102735;276;104972;-58
2023/04/11 09:01:32;;;;;;;4.80;4.40;;;;;;;26.44;32.98;100201.24;102762;277;114261;-62
2023/04/11 09:04:10;;;;;;;4.20;3.20;;;;;;;26.54;31.99;100201.70;102705;276;94469;-62
2023/04/11 09:06:57;;;;;;;3.20;2.90;;;;;;;26.22;31.62;100197.95;102767;277;96450;-62
2023/04/11 09:09:38;;;;;;;3.90;3.50;;;;;;;26.21;32.20;100192.84;102597;278;121476;-62
2023/04/11 09:12:15;;;;;;;3.80;3.10;;;;;;;24.88;32.53;100194.09;102721;276;106381;-59
2023/04/11 09:14:53;;;;;;;3.20;2.90;;;;;;;25.10;33.24;100190.11;102774;277;113295;-59
2023/04/11 09:17:42;;;;;;;3.60;3.10;;;;;;;25.50;33.32;100176.80;102744;276;92361;-57
2023/04/11 09:20:28;;;;;;;4.20;3.00;;;;;;;24.67;32.69;100178.78;102703;277;97400;-58
2023/04/11 09:23:22;;;;;;;3.40;3.10;;;;;;;24.88;33.28;100166.30;102688;277;118896;-56
2023/04/11 09:26:04;;;;;;;3.80;3.20;;;;;;;25.29;33.11;100163.55;102760;277;105569;-57
2023/04/11 09:28:58;;;;;;;4.30;2.80;;;;;;;24.24;32.70;100157.14;102733;277;114571;-56
2023/04/11 09:31:51;;;;;;;3.10;2.80;;;;;;;23.87;33.47;100147.95;102764;277;94897;-61
2023/04/11 09:34:28;;;;;;;3.90;3.00;;;;;;;22.56;33.63;100144.20;102764;277;98133;-62
2023/04/11 09:37:11;;;;;;;3.50;3.00;;;;;;;22.18;34.97;100133.45;102786;277;119806;-56
2023/04/11 09:40:03;;;;;;;4.40;2.60;;;;;;;22.03;34.95;100127.80;102529;278;104556;-56
2023/04/11 09:42:42;;;;;;;3.40;3.10;;;;;;;21.07;35.78;100125.04;102760;276;114923;-63
2023/04/11 09:45:24;;;;;;;3.00;2.70;;;;;;;20.73;36.48;100116.20;102694;277;94534;-62
2023/04/11 09:48:00;;;;;;;4.50;3.10;;;;;;;20.41;36.68;100121.31;102735;276;96917;-59
2023/04/11 09:50:41;;;;;;;3.30;3.00;;;;;;;19.77;37.21;100118.55;102791;276;119486;-55
2023/04/11 09:53:16;;;;;;;3.00;2.40;;;;;;;19.35;37.68;100107.48;102751;276;105883;-56
2023/04/11 09:55:55;;;;;;;4.50;2.50;;;;;;;19.02;37.86;100100.98;102733;276;113853;-56
2023/04/11 09:58:36;;;;;;;4.00;2.30;;;;;;;19.04;38.01;100097.35;102758;277;93442;-55
2023/04/11 10:01:13;;;;;;;2.80;2.40;;;;;;;18.94;38.36;100094.02;102784;276;97224;-56
2023/04/11 10:03:52;;;;;;;3.30;2.40;;;;;;;18.98;38.64;100093.48;102651;277;119732;-56
2023/04/11 10:06:46;;;;;;;3.90;2.80;;;;;;;18.83;38.74;100087.77;102749;277;105525;-59
2023/04/11 10:09:31;;;;;;;3.50;2.90;;;;;;;18.65;38.68;100084.48;102565;277;114224;-58
2023/04/11 10:12:12;;;;;;;3.30;2.90;;;;;;;18.74;38.92;100085.46;102765;277;94775;-60
2023/04/11 10:14:56;;;;;;;3.70;3.00;;;;;;;19.17;39.60;100083.73;102844;277;98607;-61
2023/04/11 10:17:32;;;;;;;3.70;3.30;;;;;;;19.41;39.11;100086.45;102747;276;120401;-58
2023/04/11 10:20:37;;;;;;;4.50;3.70;;;;;;;19.15;38.79;100088.91;102685;276;106173;-59
2023/04/11 10:23:14;;;;;;;4.40;3.80;;;;;;;18.95;39.49;100081.67;102786;276;114846;-62
2023/04/11 10:26:00;;;;;;;4.70;3.60;;;;;;;18.96;39.66;100074.23;102788;277;94107;-58
2023/04/11 10:28:43;;;;;;;5.20;4.20;;;;;;;18.81;39.78;100078.51;102745;277;96377;-59
2023/04/11 10:31:21;;;;;;;4.50;3.90;;;;;;;18.83;39.79;100074.27;102726;277;121356;-56
2023/04/11 10:34:15;;;;;;;5.10;4.20;;;;;;;18.78;40.05;100072.48;102751;276;104904;-57
2023/04/11 10:37:11;;;;;;;4.40;3.70;;;;;;;18.71;40.26;100069.80;102706;277;113590;-59
2023/04/11 10:40:19;;;;;;;6.10;4.40;;;;;;;18.34;40.34;100065.84;102703;277;93685;-57
2023/04/11 10:43:20;;;;;;;4.70;4.30;;;;;;;18.13;41.26;100062.64;102764;277;96357;-61
2023/04/11 10:46:22;;;;;;;4.50;3.90;;;;;;;18.23;41.19;100053.08;102756;276;120471;-57
2023/04/11 10:49:15;;;;;;;4.60;3.90;;;;;;;18.25;40.89;100056.67;102568;277;104651;-59
2023/04/11 10:52:23;;;;;;;4.70;3.70;;;;;;;18.39;40.64;100056.63;102720;277;114229;-62
2023/04/11 10:55:18;;;;;;;4.90;3.90;;;;;;;18.39;40.12;100057.02;102531;278;96397;-58
2023/04/11 10:58:18;;;;;;;4.30;3.70;;;;;;;18.49;39.64;100050.41;102595;278;97793;-56
2023/04/11 11:01:27;;;;;;;4.30;3.50;;;;;;;18.55;39.14;100048.16;102714;276;121339;-60
2023/04/11 11:04:04;;;;;;;6.60;3.90;;;;;;;18.74;39.32;100046.87;102703;276;105631;-58
2023/04/11 11:06:41;;;;;;;4.30;3.80;;;;;;;18.99;39.63;100046.98;102789;277;113038;-59
2023/04/11 11:09:27;;;;;;;4.90;4.20;;;;;;;19.13;38.96;100047.21;102711;277;94267;-58
2023/04/11 11:12:14;;;;;;;4.20;3.70;;;;;;;18.93;38.81;100040.35;102748;277;98189;-63
2023/04/11 11:14:58;;;;;;;4.00;3.60;;;;;;;18.74;39.57;100034.61;102725;277;119729;-62
2023/04/11 11:17:43;;;;;;;4.60;3.90;;;;;;;18.67;39.44;100033.52;102762;277;105216;-59
2023/04/11 11:20:28;;;;;;;5.20;3.20;;;;;;;18.40;39.45;100032.35;102734;276;113548;-62
2023/04/11 11:23:12;;;;;;;4.20;3.50;;;;;;;18.35;39.32;100031.83;102689;277;94480;-56
2023/04/11 11:25:56;;;;;;;3.70;3.30;;;;;;;18.28;38.59;100025.22;102680;276;97514;-62
2023/04/11 11:28:45;;;;;;;3.80;3.00;;;;;;;18.07;38.37;100019.05;102772;276;121504;-61
2023/04/11 11:31:34;;;;;;;3.70;3.20;;;;;;;18.04;38.81;100012.82;102796;265;106309;-56
2023/04/11 11:34:12;;;;;;;3.90;3.20;;;;;;;17.98;38.33;100017.54;102716;276;114375;-56
2023/04/11 11:36:55;;;;;;;3.80;3.40;;;;;;;17.87;38.48;100012.38;102744;277;94402;-57
2023/04/11 11:39:36;;;;;;;5.10;3.40;;;;;;;17.90;38.30;100005.96;102768;276;97525;-58
2023/04/11 11:42:15;;;;;;;4.30;3.90;;;;;;;17.85;38.10;100007.09;102713;276;120769;-57
2023/04/11 11:45:17;;;;;;;4.30;3.90;;;;;;;17.76;38.08;100002.05;102722;277;105624;-56
2023/04/11 11:47:53;;;;;;;4.10;3.60;;;;;;;17.66;38.34;99996.73;102755;277;115077;-58
2023/04/11 11:50:31;;;;;;;5.20;4.30;;;;;;;17.76;38.37;99995.61;102802;277;94100;-61
2023/04/11 11:53:18;;;;;;;6.30;4.30;;;;;;;17.89;38.54;99996.65;102776;276;97495;-61
2023/04/11 11:55:55;;;;;;;4.30;3.90;;;;;;;18.15;38.55;99996.02;102741;276;120412;-56
2023/04/11 11:58:42;;;;;;;4.80;4.40;;;;;;;18.12;37.14;99988.36;102289;277;660721;-58
2023/04/11 12:01:22;;;;;;;5.10;4.60;;;;;;;18.13;37.39;99988.48;102734;276;113419;-62
2023/04/11 12:04:00;;;;;;;4.60;4.20;;;;;;;18.10;37.32;99983.02;102775;277;94887;-64
2023/04/11 12:06:40;;;;;;;5.20;4.60;;;;;;;18.25;38.08;99984.58;102766;276;97347;-60
2023/04/11 12:09:30;;;;;;;5.00;4.50;;;;;;;18.40;38.02;99980.98;102691;276;119381;-64
2023/04/11 12:12:24;;;;;;;5.30;4.80;;;;;;;18.24;37.23;99983.91;102691;276;104444;-61
2023/04/11 12:15:19;;;;;;;5.50;5.00;;;;;;;17.80;37.31;99987.80;102746;276;114373;-59
2023/04/11 12:18:14;;;;;;;5.40;4.60;;;;;;;17.55;37.99;99982.65;102737;276;94937;-58
2023/04/11 12:21:06;;;;;;;5.30;4.50;;;;;;;17.48;38.08;99977.69;102765;276;96442;-60
2023/04/11 12:23:52;;;;;;;5.00;4.60;;;;;;;17.50;38.46;99975.55;102755;277;121742;-60